createdAt,value
2019-04-10T00:01:46.928Z,8.30
2019-04-10T00:04:15.137Z,8.30
2019-04-10T00:06:43.356Z,8.30
2019-04-10T00:09:11.661Z,8.30
2019-04-10T00:11:40.921Z,8.30
2019-04-10T00:14:10.244Z,8.20
2019-04-10T00:16:38.538Z,8.20
2019-04-10T00:19:06.799Z,8.20
2019-04-10T00:21:35.519Z,8.20
2019-04-10T00:24:03.950Z,8.20
2019-04-10T00:26:32.201Z,8.20
2019-04-10T00:29:00.425Z,8.20
2019-04-10T00:31:29.693Z,8.20
2019-04-10T00:33:58.980Z,8.20
2019-04-10T00:36:27.339Z,8.20
2019-04-10T00:38:55.927Z,8.20
2019-04-10T00:41:24.247Z,8.20
2019-04-10T00:43:52.459Z,8.20
2019-04-10T00:46:20.664Z,8.20
2019-04-10T00:48:48.876Z,8.20
2019-04-10T00:51:17.291Z,8.20
2019-04-10T00:53:45.625Z,8.20
2019-04-10T00:56:14.567Z,8.20
2019-04-10T00:58:43.709Z,8.20
2019-04-10T01:01:12.255Z,8.20
2019-04-10T01:03:43.699Z,8.10
2019-04-10T01:06:13.638Z,8.10
2019-04-10T01:08:42.757Z,8.10
2019-04-10T01:11:11.048Z,8.10
2019-04-10T01:13:39.248Z,8.10
2019-04-10T01:16:07.455Z,8.10
2019-04-10T01:18:35.679Z,8.10
2019-04-10T01:21:04.115Z,8.10
2019-04-10T01:23:33.097Z,8.00
2019-04-10T01:26:01.501Z,8.00
2019-04-10T01:28:29.711Z,8.00
2019-04-10T01:30:59.006Z,7.90
2019-04-10T01:33:28.327Z,7.90
2019-04-10T01:35:56.598Z,7.80
2019-04-10T01:38:25.166Z,7.80
2019-04-10T01:40:53.509Z,7.70
2019-04-10T01:43:22.497Z,7.70
2019-04-10T01:45:51.565Z,7.60
2019-04-10T01:48:19.812Z,7.50
2019-04-10T01:50:48.019Z,7.50
2019-04-10T01:53:16.247Z,7.50
2019-04-10T01:55:44.538Z,7.40
2019-04-10T01:58:14.429Z,7.40
2019-04-10T02:00:50.665Z,7.30
2019-04-10T02:03:20.122Z,7.30
2019-04-10T02:05:49.175Z,7.30
2019-04-10T02:08:18.682Z,7.30
2019-04-10T02:10:48.119Z,7.30
2019-04-10T02:13:17.154Z,7.20
2019-04-10T02:15:46.096Z,7.20
2019-04-10T02:18:14.372Z,7.20
2019-04-10T02:20:43.141Z,7.10
2019-04-10T02:23:12.222Z,7.00
2019-04-10T02:25:41.099Z,6.90
2019-04-10T02:28:09.455Z,6.90
2019-04-10T02:30:39.628Z,6.90
2019-04-10T02:33:08.369Z,6.80
2019-04-10T02:35:37.993Z,6.70
2019-04-10T02:38:25.948Z,6.70
2019-04-10T02:40:37.322Z,6.70
2019-04-10T02:43:07.795Z,6.60
2019-04-10T02:45:36.556Z,6.60
2019-04-10T02:48:06.155Z,6.60
2019-04-10T02:50:35.387Z,6.50
2019-04-10T02:53:05.360Z,6.50
2019-04-10T02:55:35.397Z,6.50
2019-04-10T02:58:03.978Z,6.40
2019-04-10T03:00:35.875Z,6.40
2019-04-10T03:03:05.386Z,6.40
2019-04-10T03:05:34.641Z,6.30
2019-04-10T03:08:04.866Z,6.30
2019-04-10T03:10:40.828Z,6.30
2019-04-10T03:13:04.769Z,6.30
2019-04-10T03:15:33.774Z,6.30
2019-04-10T03:18:02.278Z,6.30
2019-04-10T03:20:30.547Z,6.30
2019-04-10T03:22:58.845Z,6.30
2019-04-10T03:25:27.053Z,6.30
2019-04-10T03:27:55.256Z,6.30
2019-04-10T03:30:23.699Z,6.30
2019-04-10T03:32:59.522Z,6.30
2019-04-10T03:35:25.400Z,6.30
2019-04-10T03:37:53.597Z,6.30
2019-04-10T03:40:21.839Z,6.30
2019-04-10T03:42:50.038Z,6.30
2019-04-10T03:45:18.243Z,6.30
2019-04-10T03:47:47.339Z,6.30
2019-04-10T03:50:16.326Z,6.20
2019-04-10T03:52:45.366Z,6.20
2019-04-10T03:55:13.711Z,6.20
2019-04-10T03:57:42.805Z,6.20
2019-04-10T04:00:12.102Z,6.20
2019-04-10T04:02:40.357Z,6.20
2019-04-10T04:05:08.651Z,6.10
2019-04-10T04:07:36.900Z,6.10
2019-04-10T04:10:06.754Z,6.10
2019-04-10T04:12:35.043Z,6.00
2019-04-10T04:15:03.710Z,6.00
2019-04-10T04:17:32.518Z,6.00
2019-04-10T04:20:01.020Z,6.00
2019-04-10T04:22:29.223Z,5.90
2019-04-10T04:24:58.171Z,5.90
2019-04-10T04:27:27.106Z,5.90
2019-04-10T04:29:55.432Z,5.80
2019-04-10T04:32:23.830Z,5.80
2019-04-10T04:34:52.208Z,5.70
2019-04-10T04:37:20.824Z,5.70
2019-04-10T04:39:49.120Z,5.60
2019-04-10T04:42:17.328Z,5.60
2019-04-10T04:44:45.556Z,5.50
2019-04-10T04:47:13.761Z,5.50
2019-04-10T04:49:42.128Z,5.50
2019-04-10T04:52:12.805Z,5.50
2019-04-10T04:54:41.254Z,5.50
2019-04-10T04:57:10.685Z,5.50
2019-04-10T04:59:38.968Z,5.40
2019-04-10T05:02:07.908Z,5.50
2019-04-10T05:04:37.315Z,5.50
2019-04-10T05:07:06.323Z,5.50
2019-04-10T05:09:38.799Z,5.50
2019-04-10T05:12:04.576Z,5.60
2019-04-10T05:14:32.800Z,5.60
2019-04-10T05:17:01.022Z,5.60
2019-04-10T05:19:29.744Z,5.60
2019-04-10T05:21:58.034Z,5.70
2019-04-10T05:24:30.056Z,5.70
2019-04-10T05:26:59.218Z,5.70
2019-04-10T05:29:30.370Z,5.90
2019-04-10T05:31:57.408Z,5.90
2019-04-10T05:34:25.666Z,5.90
2019-04-10T05:36:54.666Z,6.10
2019-04-10T05:39:22.968Z,6.10
2019-04-10T05:41:51.239Z,6.20
2019-04-10T05:44:20.110Z,6.30
2019-04-10T05:46:49.203Z,6.30
2019-04-10T05:49:17.504Z,6.40
2019-04-10T05:51:45.798Z,6.50
2019-04-10T05:54:14.915Z,6.60
2019-04-10T05:56:43.235Z,6.60
2019-04-10T05:59:13.167Z,6.70
2019-04-10T06:01:42.724Z,6.70
2019-04-10T06:04:11.644Z,6.70
2019-04-10T06:06:40.895Z,6.80
2019-04-10T06:09:09.484Z,6.90
2019-04-10T06:11:37.704Z,6.90
2019-04-10T06:14:05.910Z,7.20
2019-04-10T06:16:34.336Z,7.30
2019-04-10T06:19:03.635Z,7.50
2019-04-10T06:21:32.140Z,7.50
2019-04-10T06:24:00.380Z,7.70
2019-04-10T06:26:29.899Z,7.70
2019-04-10T06:28:58.923Z,7.60
2019-04-10T06:31:28.405Z,7.60
2019-04-10T06:33:56.892Z,7.80
2019-04-10T06:36:25.158Z,7.70
2019-04-10T06:38:53.371Z,7.80
2019-04-10T06:41:22.289Z,7.60
2019-04-10T06:43:50.700Z,7.60
2019-04-10T06:46:20.044Z,7.70
2019-04-10T06:48:48.392Z,7.80
2019-04-10T06:51:18.816Z,8.00
2019-04-10T06:53:54.049Z,8.30
2019-04-10T06:56:16.684Z,8.20
2019-04-10T06:58:44.989Z,8.60
2019-04-10T07:01:13.206Z,8.90
2019-04-10T07:03:51.931Z,9.40
2019-04-10T07:06:17.650Z,10.20
2019-04-10T07:08:46.411Z,10.30
2019-04-10T07:11:13.096Z,10.40
2019-04-10T07:13:41.662Z,10.50
2019-04-10T07:16:11.337Z,11.00
2019-04-10T07:18:41.127Z,10.90
2019-04-10T07:21:10.622Z,11.40
2019-04-10T07:23:38.938Z,11.80
2019-04-10T07:26:07.164Z,12.10
2019-04-10T07:28:37.807Z,11.60
2019-04-10T07:31:08.473Z,11.90
2019-04-10T07:33:35.328Z,12.00
2019-04-10T07:36:08.536Z,12.20
2019-04-10T07:38:33.471Z,11.90
2019-04-10T07:41:06.262Z,12.20
2019-04-10T07:43:32.139Z,12.30
2019-04-10T07:46:00.520Z,12.50
2019-04-10T07:48:29.427Z,12.00
2019-04-10T07:50:57.756Z,12.20
2019-04-10T07:53:26.813Z,12.20
2019-04-10T07:56:02.902Z,12.20
2019-04-10T07:58:25.181Z,12.00
2019-04-10T08:00:53.412Z,12.60
2019-04-10T08:03:21.623Z,13.20
2019-04-10T08:05:50.276Z,13.20
2019-04-10T08:08:19.362Z,12.60
2019-04-10T08:10:48.755Z,12.50
2019-04-10T08:13:17.301Z,13.20
2019-04-10T08:15:45.660Z,13.90
2019-04-10T08:18:14.666Z,14.40
2019-04-10T08:20:43.007Z,14.10
2019-04-10T08:23:12.325Z,14.10
2019-04-10T08:25:43.351Z,13.50
2019-04-10T08:28:11.713Z,13.60
2019-04-10T08:30:39.995Z,14.20
2019-04-10T08:33:08.197Z,15.00
2019-04-10T08:35:36.415Z,16.00
2019-04-10T08:38:05.482Z,16.40
2019-04-10T08:40:34.239Z,16.50
2019-04-10T08:43:04.435Z,16.40
2019-04-10T08:45:40.055Z,16.90
2019-04-10T08:48:03.580Z,16.10
2019-04-10T08:50:34.921Z,16.40
2019-04-10T08:53:04.083Z,16.40
2019-04-10T08:55:34.481Z,16.70
2019-04-10T08:58:02.909Z,17.00
2019-04-10T09:00:32.344Z,17.40
2019-04-10T09:03:00.864Z,16.90
2019-04-10T09:05:29.947Z,16.70
2019-04-10T09:07:58.284Z,17.50
2019-04-10T09:10:26.514Z,17.20
2019-04-10T09:12:55.898Z,17.90
2019-04-10T09:15:24.320Z,18.20
2019-04-10T09:17:52.563Z,19.10
2019-04-10T09:20:20.751Z,19.70
2019-04-10T09:23:10.390Z,19.40
2019-04-10T09:25:19.697Z,19.80
2019-04-10T09:27:48.119Z,19.70
2019-04-10T09:30:16.492Z,20.10
2019-04-10T09:32:45.029Z,19.90
2019-04-10T09:35:14.128Z,19.80
2019-04-10T09:37:43.375Z,19.50
2019-04-10T09:40:12.355Z,18.90
2019-04-10T09:42:41.777Z,20.00
2019-04-10T09:45:11.527Z,20.90
2019-04-10T09:47:39.900Z,20.60
2019-04-10T09:50:09.763Z,20.90
2019-04-10T09:52:38.074Z,20.20
2019-04-10T09:55:07.571Z,20.00
2019-04-10T09:57:36.726Z,20.10
2019-04-10T10:00:16.720Z,20.50
2019-04-10T10:02:45.262Z,20.60
2019-04-10T10:05:14.604Z,20.80
2019-04-10T10:07:43.266Z,20.90
2019-04-10T10:10:12.733Z,20.80
2019-04-10T10:12:41.076Z,20.10
2019-04-10T10:15:09.557Z,20.30
2019-04-10T10:17:39.066Z,20.70
2019-04-10T10:20:07.920Z,21.40
2019-04-10T10:22:37.051Z,21.60
2019-04-10T10:25:09.119Z,21.10
2019-04-10T10:27:40.839Z,20.20
2019-04-10T10:30:10.059Z,19.20
2019-04-10T10:32:39.700Z,19.60
2019-04-10T10:35:11.284Z,19.00
2019-04-10T10:37:40.933Z,18.90
2019-04-10T10:40:10.130Z,19.10
2019-04-10T10:42:40.202Z,18.00
2019-04-10T10:45:10.516Z,18.40
2019-04-10T10:47:40.175Z,19.00
2019-04-10T10:50:08.806Z,19.90
2019-04-10T10:52:37.059Z,19.40
2019-04-10T10:55:05.510Z,19.20
2019-04-10T10:57:35.248Z,19.50
2019-04-10T11:00:06.306Z,19.50
2019-04-10T11:02:35.789Z,20.40
2019-04-10T11:05:06.897Z,18.90
2019-04-10T11:07:35.136Z,19.40
2019-04-10T11:10:04.343Z,19.50
2019-04-10T11:12:34.128Z,19.30
2019-04-10T11:15:03.682Z,19.80
2019-04-10T11:17:32.176Z,19.60
2019-04-10T11:20:12.483Z,20.00
2019-04-10T11:22:40.128Z,19.70
2019-04-10T11:25:08.476Z,20.60
2019-04-10T11:27:42.506Z,21.20
2019-04-10T11:30:12.555Z,21.70
2019-04-10T11:32:42.222Z,22.00
2019-04-10T11:35:11.165Z,21.50
2019-04-10T11:37:44.572Z,21.50
2019-04-10T11:40:09.500Z,21.80
2019-04-10T11:42:39.724Z,22.30
2019-04-10T11:45:08.035Z,21.60
2019-04-10T11:47:36.848Z,20.10
2019-04-10T11:52:44.539Z,19.50
2019-04-10T11:57:41.760Z,20.50
2019-04-10T12:00:12.061Z,19.90
2019-04-10T12:02:42.427Z,19.20
2019-04-10T12:08:12.286Z,20.40
2019-04-10T12:12:48.615Z,19.90
2019-04-10T12:15:18.349Z,20.90
2019-04-10T12:17:46.860Z,21.20
2019-04-10T12:20:15.149Z,21.60
2019-04-10T12:22:44.105Z,20.90
2019-04-10T12:25:12.453Z,21.30
2019-04-10T12:27:47.335Z,22.00
2019-04-10T12:30:15.313Z,22.20
2019-04-10T12:32:45.986Z,22.10
2019-04-10T12:35:15.152Z,21.80
2019-04-10T12:37:43.531Z,22.30
2019-04-10T12:40:11.909Z,22.50
2019-04-10T12:42:40.724Z,22.50
2019-04-10T12:45:09.338Z,22.70
2019-04-10T12:47:37.764Z,21.80
2019-04-10T12:50:07.963Z,21.80
2019-04-10T12:52:35.786Z,22.30
2019-04-10T12:55:05.994Z,22.30
2019-04-10T12:57:33.546Z,22.80
2019-04-10T13:00:04.606Z,22.10
2019-04-10T13:02:31.468Z,21.50
2019-04-10T13:05:00.762Z,21.60
2019-04-10T13:07:29.699Z,21.90
2019-04-10T13:09:59.104Z,21.50
2019-04-10T13:12:27.319Z,22.10
2019-04-10T13:14:55.548Z,22.10
2019-04-10T13:17:24.757Z,22.50
2019-04-10T13:19:53.388Z,22.70
2019-04-10T13:22:24.969Z,22.30
2019-04-10T13:24:54.123Z,22.30
2019-04-10T13:27:23.083Z,22.10
2019-04-10T13:29:52.237Z,22.50
2019-04-10T13:32:20.567Z,22.00
2019-04-10T13:34:49.291Z,21.30
2019-04-10T13:37:17.997Z,21.20
2019-04-10T13:39:46.823Z,21.70
2019-04-10T13:42:15.524Z,21.50
2019-04-10T13:44:43.783Z,21.30
2019-04-10T13:47:12.020Z,21.70
2019-04-10T13:49:40.265Z,21.70
2019-04-10T13:52:08.475Z,21.20
2019-04-10T13:54:36.870Z,21.00
2019-04-10T13:57:05.705Z,20.60
2019-04-10T13:59:35.137Z,19.30
2019-04-10T14:02:04.799Z,18.50
2019-04-10T14:04:33.584Z,19.20
2019-04-10T14:07:02.067Z,19.50
2019-04-10T14:09:40.604Z,20.00
2019-04-10T14:12:00.236Z,19.90
2019-04-10T14:14:28.717Z,19.80
2019-04-10T14:16:57.326Z,19.50
2019-04-10T14:19:27.737Z,19.80
2019-04-10T14:21:55.490Z,19.80
2019-04-10T14:24:24.835Z,18.90
2019-04-10T14:26:58.133Z,19.40
2019-04-10T14:29:26.870Z,19.60
2019-04-10T14:31:56.853Z,19.00
2019-04-10T14:34:26.099Z,19.30
2019-04-10T14:36:54.816Z,18.60
2019-04-10T14:39:24.163Z,18.80
2019-04-10T14:41:53.841Z,18.90
2019-04-10T14:44:23.245Z,18.90
2019-04-10T14:46:52.135Z,18.30
2019-04-10T14:49:20.885Z,19.00
2019-04-10T14:51:49.449Z,19.00
2019-04-10T14:54:17.944Z,19.60
2019-04-10T14:56:46.398Z,19.10
2019-04-10T14:59:15.661Z,19.00
2019-04-10T15:01:44.255Z,18.60
2019-04-10T15:04:12.952Z,18.60
2019-04-10T15:06:41.756Z,18.80
2019-04-10T15:09:23.206Z,18.30
2019-04-10T15:11:47.139Z,18.00
2019-04-10T15:14:15.360Z,17.50
2019-04-10T15:16:52.945Z,17.40
2019-04-10T15:19:13.543Z,16.90
2019-04-10T15:21:42.972Z,16.30
2019-04-10T15:24:11.284Z,15.60
2019-04-10T15:26:40.403Z,16.00
2019-04-10T15:29:08.928Z,16.20
2019-04-10T15:31:37.184Z,16.80
2019-04-10T15:34:05.735Z,17.30
2019-04-10T15:36:34.080Z,17.60
2019-04-10T15:39:02.410Z,17.70
2019-04-10T15:41:30.792Z,16.70
2019-04-10T15:43:59.421Z,16.90
2019-04-10T15:46:28.826Z,17.10
2019-04-10T15:48:58.394Z,16.80
2019-04-10T15:51:27.925Z,16.50
2019-04-10T15:53:57.063Z,16.40
2019-04-10T15:56:25.645Z,16.10
2019-04-10T15:58:54.027Z,15.60
2019-04-10T16:01:22.244Z,15.20
2019-04-10T16:03:50.692Z,14.80
2019-04-10T16:06:18.961Z,14.80
2019-04-10T16:08:48.187Z,15.00
2019-04-10T16:11:19.426Z,15.30
2019-04-10T16:13:49.427Z,15.20
2019-04-10T16:16:25.514Z,15.00
2019-04-10T16:18:55.488Z,14.80
2019-04-10T16:21:24.539Z,14.50
2019-04-10T16:23:54.655Z,14.20
2019-04-10T16:26:23.047Z,13.70
2019-04-10T16:28:51.563Z,13.80
2019-04-10T16:31:19.952Z,13.70
2019-04-10T16:33:48.357Z,13.50
2019-04-10T16:36:17.170Z,13.40
2019-04-10T16:38:45.617Z,13.10
2019-04-10T16:41:13.897Z,12.80
2019-04-10T16:43:42.146Z,12.70
2019-04-10T16:46:11.201Z,12.40
2019-04-10T16:48:40.021Z,12.40
2019-04-10T16:51:14.790Z,12.30
2019-04-10T16:53:38.442Z,12.10
2019-04-10T16:56:07.359Z,12.00
2019-04-10T16:58:36.681Z,11.90
2019-04-10T17:01:06.369Z,11.80
2019-04-10T17:03:35.751Z,11.80
2019-04-10T17:06:04.100Z,11.60
2019-04-10T17:08:32.341Z,11.50
2019-04-10T17:11:00.819Z,11.50
2019-04-10T17:13:29.208Z,11.40
2019-04-10T17:15:57.641Z,11.30
2019-04-10T17:18:26.163Z,11.30
2019-04-10T17:20:55.115Z,11.10
2019-04-10T17:23:24.467Z,11.10
2019-04-10T17:25:52.978Z,11.00
2019-04-10T17:28:23.193Z,11.00
2019-04-10T17:30:51.894Z,10.90
2019-04-10T17:33:20.680Z,10.70
2019-04-10T17:35:49.078Z,10.60
2019-04-10T17:38:18.456Z,10.50
2019-04-10T17:40:51.411Z,10.40
2019-04-10T17:43:16.964Z,10.30
2019-04-10T17:45:45.319Z,10.30
2019-04-10T17:48:13.752Z,10.20
2019-04-10T17:50:43.346Z,10.10
2019-04-10T17:53:13.530Z,10.00
2019-04-10T17:55:42.120Z,9.90
2019-04-10T17:58:11.498Z,9.80
2019-04-10T18:00:45.296Z,9.70
2019-04-10T18:03:16.774Z,9.70
2019-04-10T18:05:44.588Z,9.60
2019-04-10T18:08:12.961Z,9.40
2019-04-10T18:10:48.740Z,9.50
2019-04-10T18:13:11.521Z,9.40
2019-04-10T18:15:39.983Z,9.30
2019-04-10T18:18:08.346Z,9.20
2019-04-10T18:20:36.592Z,9.10
2019-04-10T18:23:05.001Z,9.00
2019-04-10T18:25:34.050Z,8.90
2019-04-10T18:28:03.280Z,8.90
2019-04-10T18:30:33.827Z,8.80
2019-04-10T18:33:03.252Z,8.70
2019-04-10T18:35:32.428Z,8.70
2019-04-10T18:38:01.587Z,8.60
2019-04-10T18:40:30.024Z,8.50
2019-04-10T18:42:59.535Z,8.40
2019-04-10T18:45:28.475Z,8.40
2019-04-10T18:47:56.683Z,8.30
2019-04-10T18:50:24.892Z,8.30
2019-04-10T18:52:53.927Z,8.20
2019-04-10T18:55:22.574Z,8.10
2019-04-10T18:57:51.424Z,8.00
2019-04-10T19:00:21.866Z,7.90
2019-04-10T19:02:57.756Z,7.90
2019-04-10T19:05:40.295Z,7.80
2019-04-10T19:08:11.131Z,7.70
2019-04-10T19:10:38.994Z,7.60
2019-04-10T19:13:07.473Z,7.60
2019-04-10T19:15:37.172Z,7.60
2019-04-10T19:18:06.253Z,7.50
2019-04-10T19:20:35.357Z,7.40
2019-04-10T19:23:04.392Z,7.40
2019-04-10T19:25:32.909Z,7.40
2019-04-10T19:28:01.417Z,7.40
2019-04-10T19:30:31.604Z,7.40
2019-04-10T19:32:59.886Z,7.50
2019-04-10T19:35:31.076Z,7.40
2019-04-10T19:37:59.420Z,7.40
2019-04-10T19:40:27.820Z,7.40
2019-04-10T19:42:56.124Z,7.30
2019-04-10T19:45:24.354Z,7.30
2019-04-10T19:47:52.829Z,7.30
2019-04-10T19:50:22.057Z,7.20
2019-04-10T19:52:50.785Z,7.20
2019-04-10T19:55:19.808Z,7.20
2019-04-10T19:57:48.489Z,7.10
2019-04-10T20:00:18.720Z,7.20
2019-04-10T20:02:47.316Z,7.20
2019-04-10T20:05:15.651Z,7.10
2019-04-10T20:07:44.964Z,7.00
2019-04-10T20:10:13.942Z,7.00
2019-04-10T20:12:42.622Z,6.90
2019-04-10T20:15:12.201Z,6.90
2019-04-10T20:17:40.554Z,6.90
2019-04-10T20:20:09.050Z,6.80
2019-04-10T20:22:37.324Z,6.90
2019-04-10T20:25:06.154Z,6.80
2019-04-10T20:27:34.474Z,6.70
2019-04-10T20:30:03.738Z,6.70
2019-04-10T20:32:32.344Z,6.70
2019-04-10T20:35:00.672Z,6.70
2019-04-10T20:37:29.091Z,6.60
2019-04-10T20:39:57.905Z,6.50
2019-04-10T20:42:26.652Z,6.50
2019-04-10T20:44:54.983Z,6.50
2019-04-10T20:47:23.192Z,6.40
2019-04-10T20:49:51.508Z,6.40
2019-04-10T20:52:19.996Z,6.40
2019-04-10T20:54:49.899Z,6.40
2019-04-10T20:57:19.204Z,6.40
2019-04-10T20:59:48.786Z,6.30
2019-04-10T21:02:18.058Z,6.30
2019-04-10T21:04:54.475Z,6.20
2019-04-10T21:07:16.428Z,6.10
2019-04-10T21:09:44.956Z,6.10
2019-04-10T21:12:17.444Z,6.10
2019-04-10T21:14:43.887Z,6.10
2019-04-10T21:17:12.239Z,6.00
2019-04-10T21:19:40.947Z,6.00
2019-04-10T21:22:09.340Z,6.00
2019-04-10T21:24:37.832Z,6.00
2019-04-10T21:27:06.199Z,5.90
2019-04-10T21:29:44.619Z,5.90
2019-04-10T21:32:23.952Z,5.80
2019-04-10T21:34:53.431Z,5.80
2019-04-10T21:37:22.236Z,5.70
2019-04-10T21:39:50.673Z,5.70
2019-04-10T21:42:23.485Z,5.60
2019-04-10T21:44:49.244Z,5.60
2019-04-10T21:47:17.531Z,5.50
2019-04-10T21:49:46.396Z,5.50
2019-04-10T21:52:14.740Z,5.30
2019-04-10T21:55:02.634Z,5.30
2019-04-10T21:57:31.811Z,5.30
2019-04-10T22:00:01.381Z,5.20
2019-04-10T22:02:30.035Z,5.30
2019-04-10T22:04:59.507Z,5.20
2019-04-10T22:07:43.066Z,5.20
2019-04-10T22:10:25.959Z,5.10
2019-04-10T22:12:55.404Z,5.00
2019-04-10T22:15:31.214Z,5.00
2019-04-10T22:17:59.445Z,4.90
2019-04-10T22:20:27.725Z,4.90
2019-04-10T22:22:55.940Z,5.00
2019-04-10T22:25:24.162Z,4.90
2019-04-10T22:27:52.364Z,4.90
2019-04-10T22:30:21.074Z,4.80
2019-04-10T22:32:49.360Z,4.80
2019-04-10T22:35:17.575Z,4.80
2019-04-10T22:37:46.318Z,4.90
2019-04-10T22:40:15.297Z,4.80
2019-04-10T22:42:46.656Z,4.80
2019-04-10T22:45:29.221Z,4.80
2019-04-10T22:47:58.726Z,4.70
2019-04-10T22:50:27.540Z,4.70
2019-04-10T22:52:57.007Z,4.60
2019-04-10T22:55:26.023Z,4.60
2019-04-10T22:57:54.766Z,4.60
2019-04-10T23:00:32.830Z,4.50
2019-04-10T23:03:01.149Z,4.50
2019-04-10T23:05:29.355Z,4.40
2019-04-10T23:07:57.562Z,4.50
2019-04-10T23:10:26.789Z,4.40
2019-04-10T23:13:01.691Z,4.40
2019-04-10T23:15:25.293Z,4.30
2019-04-10T23:17:53.599Z,4.30
2019-04-10T23:20:21.807Z,4.30
2019-04-10T23:22:50.676Z,4.30
2019-04-10T23:25:19.461Z,4.20
2019-04-10T23:27:51.465Z,4.20
2019-04-10T23:30:19.821Z,4.20
2019-04-10T23:32:48.343Z,4.20
2019-04-10T23:35:17.110Z,4.10
2019-04-10T23:37:45.513Z,4.10
2019-04-10T23:40:14.989Z,4.00
2019-04-10T23:42:44.178Z,4.00
2019-04-10T23:45:19.637Z,3.90
2019-04-10T23:47:48.673Z,3.90
2019-04-10T23:50:17.088Z,3.90
2019-04-10T23:52:45.288Z,3.80
2019-04-10T23:55:13.706Z,3.70
2019-04-10T23:57:43.226Z,3.70
